Time;durP1;ratioP1;P1;durP2;ratioP2;P2;SDS_P1;SDS_P2;PMS_P1;PMS_P2;Temp;Humidity;BMP_temperature;BMP_pressure;BME280_temperature;BME280_humidity;BME280_pressure;Samples;Min_cycle;Max_cycle;Signal;HPM_P1;HPM_P2
2023/09/18 00:01:54;;;;;;;6.40;4.60;;;;;;;14.10;75.00;97471.30;104469;1265;98340;-82
2023/09/18 00:04:22;;;;;;;8.80;5.10;;;;;;;13.96;75.31;97473.27;104952;1257;100778;-82
2023/09/18 00:06:49;;;;;;;6.80;4.70;;;;;;;13.85;75.61;97471.17;105042;1256;101156;-84
2023/09/18 00:09:17;;;;;;;7.30;4.90;;;;;;;13.78;75.88;97461.00;105069;1256;100006;-82
2023/09/18 00:11:45;;;;;;;6.10;4.60;;;;;;;13.73;76.04;97463.21;105037;1264;97210;-82
2023/09/18 00:14:13;;;;;;;6.80;4.90;;;;;;;13.67;75.94;97465.82;105055;1256;97016;-82
2023/09/18 00:16:40;;;;;;;5.90;4.50;;;;;;;13.67;76.27;97465.04;105144;1255;102462;-82
2023/09/18 00:19:08;;;;;;;6.00;4.70;;;;;;;13.70;76.26;97462.70;105057;1255;100316;-82
2023/09/18 00:21:36;;;;;;;5.30;4.70;;;;;;;13.75;76.18;97462.67;105028;1257;98717;-83
2023/09/18 00:24:04;;;;;;;6.40;4.40;;;;;;;13.79;76.11;97462.86;105124;1254;96650;-83
2023/09/18 00:26:32;;;;;;;4.90;4.40;;;;;;;13.81;76.05;97461.13;105120;1255;96554;-82
2023/09/18 00:28:59;;;;;;;7.20;4.80;;;;;;;13.82;76.00;97459.91;105064;1256;101229;-83
2023/09/18 00:31:27;;;;;;;6.10;5.00;;;;;;;13.79;76.00;97460.61;105138;1255;100182;-82
2023/09/18 00:33:55;;;;;;;6.40;5.40;;;;;;;13.74;76.00;97460.57;105048;1256;100258;-76
2023/09/18 00:36:23;;;;;;;8.40;5.10;;;;;;;13.71;76.29;97455.52;105048;1256;96570;-76
2023/09/18 00:38:50;;;;;;;7.10;5.20;;;;;;;13.69;76.23;97456.65;105049;1256;97105;-75
2023/09/18 00:41:18;;;;;;;6.90;5.10;;;;;;;13.66;76.28;97455.74;105023;1264;101262;-76
2023/09/18 00:43:46;;;;;;;5.40;4.90;;;;;;;13.59;76.42;97451.27;105020;1254;101534;-76
2023/09/18 00:46:13;;;;;;;5.90;5.30;;;;;;;13.51;76.48;97446.98;105002;1266;100223;-83
2023/09/18 00:48:41;;;;;;;7.30;5.40;;;;;;;13.53;76.50;97450.77;104978;1256;97989;-82
2023/09/18 00:51:10;;;;;;;6.40;4.90;;;;;;;13.56;76.54;97457.00;105076;1256;98161;-82
2023/09/18 00:53:39;;;;;;;7.10;4.90;;;;;;;13.58;76.61;97457.11;105210;1256;101758;-78
2023/09/18 00:56:06;;;;;;;5.00;4.50;;;;;;;13.60;76.51;97455.04;105058;1252;101486;-78
2023/09/18 00:58:34;;;;;;;8.50;5.10;;;;;;;13.61;76.43;97455.98;105121;1256;99248;-78
2023/09/18 01:01:02;;;;;;;6.40;5.00;;;;;;;13.61;76.32;97453.44;105071;1254;96581;-74
2023/09/18 01:03:31;;;;;;;5.30;4.70;;;;;;;13.62;76.21;97454.73;105066;1256;97273;-74
2023/09/18 01:06:00;;;;;;;9.40;5.00;;;;;;;13.62;76.16;97453.92;104760;1262;110951;-74
2023/09/18 01:08:27;;;;;;;7.30;5.40;;;;;;;13.59;76.17;97458.18;105108;1256;101570;-74
2023/09/18 01:11:28;;;;;;;5.50;5.00;;;;;;;13.53;76.22;97455.80;105071;1257;99946;-74
2023/09/18 01:14:08;;;;;;;6.20;5.10;;;;;;;13.41;76.50;97454.34;104813;1275;96565;-74
2023/09/18 01:16:45;;;;;;;7.30;5.10;;;;;;;13.36;76.66;97452.35;105077;1254;97005;-77
2023/09/18 01:19:13;;;;;;;7.60;5.10;;;;;;;13.38;76.73;97454.63;104606;1263;101255;-78
2023/09/18 01:21:41;;;;;;;7.20;5.10;;;;;;;13.40;76.58;97462.28;105069;1265;101370;-78
2023/09/18 01:24:08;;;;;;;8.40;4.80;;;;;;;13.41;76.60;97464.80;105034;1257;99670;-78
2023/09/18 01:26:36;;;;;;;6.10;5.50;;;;;;;13.34;76.46;97462.13;105100;1257;97119;-78
2023/09/18 01:29:04;;;;;;;7.80;5.40;;;;;;;13.31;76.52;97460.61;105133;1256;96468;-78
2023/09/18 01:31:31;;;;;;;6.70;5.30;;;;;;;13.32;76.68;97463.69;105103;1257;101328;-78
2023/09/18 01:33:59;;;;;;;7.00;5.30;;;;;;;13.32;76.59;97456.60;105064;1256;100498;-78
2023/09/18 01:36:27;;;;;;;5.50;4.90;;;;;;;13.32;76.54;97453.98;105044;1274;99256;-78
2023/09/18 01:38:56;;;;;;;6.60;5.60;;;;;;;13.32;76.48;97456.89;105038;1254;97924;-78
2023/09/18 01:41:24;;;;;;;6.40;5.10;;;;;;;13.28;76.57;97454.15;105089;1275;97791;-77
2023/09/18 01:43:52;;;;;;;6.80;5.10;;;;;;;13.21;76.78;97447.98;105060;1275;101191;-78
2023/09/18 01:46:21;;;;;;;8.50;5.10;;;;;;;13.16;76.85;97441.43;104616;1256;101409;-78
2023/09/18 01:48:48;;;;;;;6.60;5.90;;;;;;;13.08;77.05;97437.05;104465;1264;100172;-78
2023/09/18 01:51:16;;;;;;;8.20;5.60;;;;;;;13.01;77.15;97441.17;104654;1259;97922;-74
2023/09/18 01:53:44;;;;;;;8.70;5.60;;;;;;;13.01;77.38;97444.48;104682;1270;97102;-74
2023/09/18 01:56:12;;;;;;;8.50;6.20;;;;;;;13.02;77.40;97446.80;104642;1256;102221;-74
2023/09/18 01:58:39;;;;;;;6.90;6.00;;;;;;;13.02;77.39;97451.35;104607;1261;100631;-74
2023/09/18 02:01:07;;;;;;;9.30;5.90;;;;;;;13.02;77.28;97452.65;104584;1261;100086;-81
2023/09/18 02:03:35;;;;;;;6.70;6.00;;;;;;;12.99;77.32;97452.79;104606;1261;97280;-82
2023/09/18 02:06:03;;;;;;;10.40;5.60;;;;;;;13.00;77.25;97451.23;104617;1262;97006;-82
2023/09/18 02:08:30;;;;;;;5.80;5.30;;;;;;;13.02;77.14;97441.89;104381;1265;102335;-82
2023/09/18 02:10:58;;;;;;;11.20;5.80;;;;;;;13.03;77.16;97438.95;104472;1259;101634;-82
2023/09/18 02:13:26;;;;;;;6.90;6.20;;;;;;;13.03;77.21;97438.20;104385;1269;100011;-74
2023/09/18 02:15:56;;;;;;;7.90;6.40;;;;;;;13.01;77.29;97437.02;104469;1265;96838;-82
2023/09/18 02:18:23;;;;;;;9.60;6.20;;;;;;;12.98;77.32;97436.31;104506;1274;97998;-82
2023/09/18 02:20:51;;;;;;;7.60;6.30;;;;;;;12.97;77.25;97442.56;104708;1259;102298;-81
2023/09/18 02:23:19;;;;;;;7.80;6.00;;;;;;;12.95;77.25;97439.74;104712;1259;101898;-82
2023/09/18 02:25:47;;;;;;;8.80;6.40;;;;;;;12.93;77.48;97442.81;104696;1259;100218;-81
2023/09/18 02:28:15;;;;;;;8.40;6.80;;;;;;;12.93;77.42;97445.52;104703;1259;96728;-81
2023/09/18 02:30:44;;;;;;;6.90;6.20;;;;;;;12.91;77.47;97447.55;104581;1261;97988;-74
2023/09/18 02:33:11;;;;;;;8.00;5.70;;;;;;;12.92;77.31;97455.09;104657;1259;101451;-74
2023/09/18 02:35:39;;;;;;;8.10;6.00;;;;;;;12.91;77.32;97457.48;104647;1259;101922;-74
2023/09/18 02:38:07;;;;;;;10.40;6.20;;;;;;;12.88;77.19;97454.63;104688;1259;100443;-74
2023/09/18 02:40:34;;;;;;;6.50;5.50;;;;;;;12.86;77.13;97453.31;104920;1258;96575;-74
2023/09/18 02:43:03;;;;;;;7.10;5.90;;;;;;;12.82;77.26;97452.72;105073;1257;96725;-74
2023/09/18 02:45:30;;;;;;;9.00;6.00;;;;;;;12.75;77.30;97453.34;105055;1257;102411;-74
2023/09/18 02:47:58;;;;;;;6.70;5.60;;;;;;;12.67;77.50;97451.18;105058;1257;101615;-74
2023/09/18 02:50:26;;;;;;;9.80;5.90;;;;;;;12.61;77.74;97446.85;105062;1257;98509;-74
2023/09/18 02:52:53;;;;;;;7.60;6.10;;;;;;;12.61;77.90;97449.05;105043;1257;97233;-74
2023/09/18 02:55:21;;;;;;;7.60;5.80;;;;;;;12.63;77.80;97451.77;105040;1256;97814;-74
2023/09/18 02:57:49;;;;;;;9.20;5.90;;;;;;;12.59;78.05;97452.45;104687;1272;102224;-74
2023/09/18 03:00:17;;;;;;;7.50;5.80;;;;;;;12.49;78.19;97450.04;104643;1266;101642;-74
2023/09/18 03:02:45;;;;;;;9.10;6.50;;;;;;;12.42;78.67;97453.37;104593;1262;98891;-74
2023/09/18 03:05:13;;;;;;;8.40;5.70;;;;;;;12.36;78.64;97452.74;104552;1257;96850;-74
2023/09/18 03:07:41;;;;;;;8.60;6.40;;;;;;;12.34;78.89;97456.09;104623;1262;97019;-74
2023/09/18 03:10:13;;;;;;;14.70;6.70;;;;;;;12.36;78.90;97458.65;104644;1260;102118;-81
2023/09/18 03:12:41;;;;;;;7.80;6.30;;;;;;;12.38;78.95;97456.48;104605;1262;101192;-81
2023/09/18 03:15:09;;;;;;;7.20;6.50;;;;;;;12.40;78.78;97457.05;104619;1267;107318;-82
2023/09/18 03:17:37;;;;;;;11.30;6.70;;;;;;;12.41;78.77;97451.95;104612;1280;97834;-81
2023/09/18 03:20:06;;;;;;;6.80;5.90;;;;;;;12.41;78.79;97446.55;104599;1272;97121;-82
2023/09/18 03:22:34;;;;;;;7.70;6.70;;;;;;;12.38;78.71;97445.95;104648;1260;101182;-81
2023/09/18 03:25:02;;;;;;;8.20;6.70;;;;;;;12.29;78.88;97443.11;104575;1272;100084;-82
2023/09/18 03:27:31;;;;;;;9.50;6.90;;;;;;;12.20;79.03;97445.67;104651;1274;99704;-81
2023/09/18 03:29:59;;;;;;;9.20;6.60;;;;;;;12.16;79.13;97444.42;104500;1267;96511;-81
2023/09/18 03:32:27;;;;;;;9.50;6.70;;;;;;;12.21;79.02;97439.84;104690;1264;96836;-74
2023/09/18 03:34:54;;;;;;;9.60;7.10;;;;;;;12.24;79.14;97442.23;104939;1260;101660;-74
2023/09/18 03:37:22;;;;;;;10.20;6.80;;;;;;;12.23;79.18;97443.66;105053;1265;101402;-74
2023/09/18 03:39:50;;;;;;;7.60;6.80;;;;;;;12.25;79.05;97438.42;105048;1257;99903;-74
2023/09/18 03:42:17;;;;;;;10.00;7.20;;;;;;;12.28;79.09;97430.99;105056;1256;96685;-74
2023/09/18 03:44:45;;;;;;;9.20;7.30;;;;;;;12.30;78.84;97434.48;105079;1266;98043;-74
2023/09/18 03:47:13;;;;;;;8.60;7.40;;;;;;;12.29;78.89;97432.08;105101;1256;109071;-74
2023/09/18 03:49:40;;;;;;;8.90;6.70;;;;;;;12.30;78.87;97430.36;105047;1274;101437;-74
2023/09/18 03:52:08;;;;;;;9.20;6.90;;;;;;;12.30;78.74;97425.87;104929;1256;99407;-74
2023/09/18 03:54:36;;;;;;;9.10;6.80;;;;;;;12.31;78.57;97425.02;104912;1256;96641;-74
2023/09/18 03:57:03;;;;;;;6.90;6.20;;;;;;;12.29;78.55;97423.96;105083;1256;97875;-74
2023/09/18 03:59:31;;;;;;;9.60;6.70;;;;;;;12.28;78.57;97422.84;105073;1256;102364;-74
2023/09/18 04:01:59;;;;;;;7.10;6.00;;;;;;;12.27;78.57;97419.44;105104;1275;100382;-75
2023/09/18 04:04:28;;;;;;;10.90;7.20;;;;;;;12.25;78.55;97422.73;105133;1265;99302;-75
2023/09/18 04:06:55;;;;;;;9.10;7.10;;;;;;;12.24;78.66;97416.37;105108;1255;96577;-76
2023/09/18 04:09:23;;;;;;;8.20;6.70;;;;;;;12.25;78.58;97413.86;105072;1257;97070;-75
2023/09/18 04:11:51;;;;;;;9.50;6.80;;;;;;;12.26;78.58;97413.98;105057;1256;102007;-75
2023/09/18 04:14:19;;;;;;;8.40;7.50;;;;;;;12.25;78.77;97413.41;105056;1255;100573;-75
2023/09/18 04:16:47;;;;;;;10.60;7.20;;;;;;;12.17;78.95;97415.10;105070;1253;99909;-75
2023/09/18 04:19:14;;;;;;;15.00;8.10;;;;;;;12.11;79.07;97414.40;105072;1256;96546;-75
2023/09/18 04:21:42;;;;;;;11.60;7.40;;;;;;;12.10;79.22;97407.70;105063;1256;98036;-76
2023/09/18 04:24:10;;;;;;;10.70;8.00;;;;;;;12.10;79.38;97404.95;105084;1256;102276;-75
2023/09/18 04:26:37;;;;;;;10.90;7.80;;;;;;;12.13;79.30;97399.70;105071;1256;101407;-74
2023/09/18 04:29:05;;;;;;;13.80;9.00;;;;;;;12.15;79.24;97398.92;105064;1256;98959;-75
2023/09/18 04:31:33;;;;;;;10.80;8.70;;;;;;;12.17;79.29;97402.79;104742;1263;98133;-75
2023/09/18 04:34:00;;;;;;;10.70;9.20;;;;;;;12.18;79.36;97404.29;105078;1257;97060;-74
2023/09/18 04:36:28;;;;;;;15.00;11.80;;;;;;;12.18;79.48;97399.45;105075;1264;102432;-75
2023/09/18 04:38:56;;;;;;;16.20;12.50;;;;;;;12.11;79.06;97398.33;105050;1257;100377;-75
2023/09/18 09:22:33;;;;;;;10.20;9.20;;;;;;;27.65;55.19;97184.32;104949;1267;100748;-82
2023/09/18 09:25:01;;;;;;;11.50;9.90;;;;;;;27.82;54.37;97180.30;104642;1276;96766;-82
2023/09/18 09:27:29;;;;;;;10.10;9.10;;;;;;;27.95;53.91;97173.24;104881;1259;97124;-82
2023/09/18 09:30:01;;;;;;;10.70;9.70;;;;;;;28.06;53.09;97173.96;104943;1268;102422;-82
2023/09/18 09:32:33;;;;;;;10.60;9.60;;;;;;;28.09;52.50;97170.92;104612;1264;101264;-81
2023/09/18 09:35:03;;;;;;;10.60;9.50;;;;;;;28.17;52.80;97167.48;104681;1276;98701;-78
2023/09/18 09:37:32;;;;;;;11.20;9.30;;;;;;;28.28;52.67;97164.66;104613;1264;97197;-78
2023/09/18 09:40:08;;;;;;;9.90;9.00;;;;;;;28.39;52.76;97162.81;104800;1254;97068;-78
2023/09/18 09:42:42;;;;;;;10.60;9.60;;;;;;;28.49;51.87;97160.69;104559;1274;101382;-79
2023/09/18 09:45:16;;;;;;;11.00;9.90;;;;;;;28.51;51.59;97157.90;104810;1261;101130;-78
2023/09/18 09:47:44;;;;;;;10.30;9.20;;;;;;;28.60;51.91;97152.84;104533;1263;99995;-78
2023/09/18 09:50:18;;;;;;;12.30;10.30;;;;;;;28.72;50.92;97148.11;104856;1261;96961;-79
2023/09/18 09:52:51;;;;;;;10.80;9.40;;;;;;;28.77;50.34;97149.32;104865;1268;97070;-78
2023/09/18 09:55:33;;;;;;;10.50;9.30;;;;;;;28.83;50.65;97146.19;104990;1257;101254;-82
2023/09/18 09:58:06;;;;;;;10.70;9.50;;;;;;;28.93;50.59;97142.60;104632;1264;100620;-83
2023/09/18 10:00:59;;;;;;;10.20;9.20;;;;;;;28.98;49.62;97137.40;104978;1267;100119;-78
2023/09/18 10:03:28;;;;;;;10.40;9.40;;;;;;;29.02;49.33;97136.33;104558;1277;96748;-78
2023/09/18 10:05:59;;;;;;;10.80;9.30;;;;;;;29.06;48.63;97135.35;104672;1264;96831;-79
2023/09/18 10:08:30;;;;;;;10.90;9.80;;;;;;;29.09;49.24;97130.68;104966;1269;101313;-79
2023/09/18 10:11:09;;;;;;;11.20;10.10;;;;;;;29.15;48.28;97128.93;104643;1271;100071;-83
2023/09/18 10:13:46;;;;;;;11.30;9.70;;;;;;;29.18;47.70;97128.02;104666;1264;100046;-82
2023/09/18 10:16:18;;;;;;;10.80;9.70;;;;;;;29.23;47.43;97124.39;104956;1253;96568;-81
2023/09/18 10:18:53;;;;;;;10.30;9.30;;;;;;;29.27;47.31;97121.52;104638;1273;96750;-81
2023/09/18 10:22:11;;;;;;;10.20;9.10;;;;;;;29.22;46.99;97120.23;104642;1273;102665;-81
2023/09/18 10:24:41;;;;;;;10.30;9.40;;;;;;;29.17;47.02;97114.97;104975;1259;99946;-81
2023/09/18 10:27:13;;;;;;;10.30;9.30;;;;;;;29.21;47.37;97113.45;104892;1258;99014;-81
2023/09/18 10:29:44;;;;;;;9.80;8.80;;;;;;;29.27;46.71;97112.83;104623;1254;96675;-81
2023/09/18 10:32:13;;;;;;;10.50;9.00;;;;;;;29.28;46.22;97107.36;104800;1259;96612;-81
2023/09/18 10:34:43;;;;;;;10.10;9.10;;;;;;;29.28;45.60;97104.25;104617;1259;101238;-81
2023/09/18 10:37:13;;;;;;;10.60;8.60;;;;;;;29.27;45.39;97098.43;104904;1267;101408;-81
2023/09/18 10:39:43;;;;;;;9.40;8.40;;;;;;;29.27;45.33;97090.39;104547;1264;97766;-82
2023/09/18 10:42:14;;;;;;;10.00;8.80;;;;;;;29.20;45.76;97087.27;104541;1272;96863;-81
2023/09/18 10:44:42;;;;;;;9.90;8.60;;;;;;;29.14;45.30;97082.97;104899;1260;96649;-81
2023/09/18 10:47:14;;;;;;;9.90;9.00;;;;;;;29.14;45.93;97082.91;104879;1254;100826;-82
2023/09/18 10:49:42;;;;;;;8.70;7.90;;;;;;;29.19;45.98;97083.05;104924;1255;100484;-80
2023/09/18 10:52:14;;;;;;;9.50;8.60;;;;;;;29.20;45.83;97081.04;104845;1261;99032;-79
2023/09/18 10:54:42;;;;;;;9.00;8.20;;;;;;;29.19;45.00;97079.80;104624;1263;98227;-79
2023/09/18 10:57:10;;;;;;;9.50;7.80;;;;;;;29.20;44.72;97082.91;104954;1261;97821;-79
2023/09/18 10:59:46;;;;;;;9.90;8.90;;;;;;;29.24;44.29;97082.57;104934;1259;100199;-79
2023/09/18 11:02:18;;;;;;;10.60;9.10;;;;;;;29.23;44.49;97079.63;104980;1254;101416;-80
2023/09/18 11:04:46;;;;;;;9.50;8.40;;;;;;;29.19;43.78;97077.00;104942;1254;97724;-80
2023/09/18 11:07:31;;;;;;;13.30;9.10;;;;;;;29.05;42.46;97073.08;104895;1257;97435;-80
2023/09/18 11:09:59;;;;;;;15.50;9.30;;;;;;;28.97;44.35;97075.87;104935;1258;97049;-81
2023/09/18 11:12:46;;;;;;;9.70;8.80;;;;;;;29.04;45.30;97074.69;104919;1268;102284;-81
2023/09/18 11:15:32;;;;;;;11.30;8.50;;;;;;;29.13;44.89;97068.59;104695;1254;100156;-83
2023/09/18 11:18:03;;;;;;;12.60;9.10;;;;;;;29.21;45.13;97063.58;104935;1268;100233;-83
2023/09/18 11:20:30;;;;;;;9.20;8.30;;;;;;;29.26;44.77;97062.90;104904;1258;96837;-83
2023/09/18 11:23:13;;;;;;;9.00;8.10;;;;;;;29.28;44.96;97059.41;104967;1258;97276;-83
2023/09/18 11:25:42;;;;;;;9.70;8.70;;;;;;;29.34;45.22;97054.69;104926;1257;102261;-81
2023/09/18 11:28:23;;;;;;;7.90;7.10;;;;;;;29.40;44.32;97051.35;104651;1263;101775;-80
2023/09/18 11:30:58;;;;;;;8.90;7.70;;;;;;;29.40;43.75;97048.17;104966;1268;99859;-80
2023/09/18 11:33:40;;;;;;;8.90;8.10;;;;;;;29.39;43.85;97049.04;104861;1266;97417;-80
2023/09/18 11:36:12;;;;;;;;;;;;;;;29.43;43.49;97047.34;104895;1254;96655;-80
2023/09/18 11:38:56;;;;;;;7.90;7.20;;;;;;;29.41;42.90;97046.70;104893;1267;102229;-79
2023/09/18 11:41:29;;;;;;;8.10;7.00;;;;;;;29.41;43.06;97044.67;104850;1270;101644;-80
2023/09/18 11:44:16;;;;;;;9.00;7.20;;;;;;;29.45;42.22;97048.23;104877;1259;98964;-80
2023/09/18 11:46:51;;;;;;;8.20;6.90;;;;;;;29.49;42.23;97042.63;104636;1257;96776;-79
2023/09/18 11:49:26;;;;;;;8.90;7.00;;;;;;;29.55;42.25;97037.40;104612;1262;97079;-79
2023/09/18 11:51:59;;;;;;;7.40;6.80;;;;;;;29.59;41.72;97039.96;104931;1257;101347;-79
2023/09/18 11:54:29;;;;;;;8.30;7.50;;;;;;;29.61;41.34;97038.77;104894;1254;101336;-80
2023/09/18 11:56:58;;;;;;;8.00;7.30;;;;;;;29.62;40.94;97033.75;104634;1262;99308;-79
2023/09/18 11:59:39;;;;;;;13.60;7.40;;;;;;;29.65;40.71;97035.85;104689;1261;96660;-78
2023/09/18 12:02:08;;;;;;;7.70;7.00;;;;;;;29.70;40.44;97036.39;104819;1267;96928;-80
2023/09/18 12:04:36;;;;;;;7.30;6.70;;;;;;;29.73;40.49;97034.98;104860;1268;100911;-81
2023/09/18 12:07:08;;;;;;;10.10;7.30;;;;;;;29.78;40.23;97031.56;104887;1254;100187;-83
2023/09/18 12:09:36;;;;;;;6.90;6.30;;;;;;;29.80;39.81;97032.84;104884;1254;98898;-80
2023/09/18 12:12:08;;;;;;;7.80;6.90;;;;;;;29.79;39.83;97031.91;104548;1260;97022;-81
2023/09/18 12:14:36;;;;;;;7.90;6.60;;;;;;;29.80;40.74;97028.70;104543;1262;96738;-81
2023/09/18 12:17:04;;;;;;;7.20;6.60;;;;;;;29.79;39.61;97025.63;104539;1262;102255;-79
2023/09/18 12:19:34;;;;;;;7.30;6.50;;;;;;;29.77;39.95;97021.85;104327;1266;100164;-79
2023/09/18 12:22:03;;;;;;;7.10;6.50;;;;;;;29.79;39.98;97018.17;104410;1261;99116;-79
2023/09/18 12:24:31;;;;;;;8.60;6.40;;;;;;;29.78;39.70;97013.79;104156;1268;96615;-79
2023/09/18 12:27:00;;;;;;;8.20;6.90;;;;;;;29.66;39.39;97009.56;104331;1262;97726;-81
2023/09/18 12:29:27;;;;;;;6.90;6.30;;;;;;;29.57;39.24;97006.92;104437;1264;102353;-79
2023/09/18 12:31:56;;;;;;;6.70;6.00;;;;;;;29.56;39.44;97001.41;104338;1268;100383;-82
2023/09/18 12:34:23;;;;;;;7.00;6.30;;;;;;;29.57;40.60;96990.02;104346;1268;99299;-82
2023/09/18 12:36:52;;;;;;;7.80;7.10;;;;;;;29.58;40.21;96984.63;104281;1266;96624;-82
2023/09/18 12:39:21;;;;;;;7.30;6.60;;;;;;;29.51;40.78;96985.91;104197;1267;97108;-82
2023/09/18 12:41:50;;;;;;;7.00;6.40;;;;;;;29.51;41.04;96981.46;104323;1267;102268;-82
2023/09/18 12:44:19;;;;;;;7.00;6.20;;;;;;;29.57;41.57;96979.84;104546;1265;100569;-81
2023/09/18 12:46:50;;;;;;;7.30;6.20;;;;;;;29.64;41.04;96982.17;104619;1262;100034;-82
2023/09/18 12:49:23;;;;;;;5.50;5.00;;;;;;;29.70;40.00;96978.55;104310;1258;96966;-83
2023/09/18 12:52:01;;;;;;;6.70;5.50;;;;;;;29.68;39.21;96976.66;104332;1263;97138;-83
2023/09/18 12:54:38;;;;;;;7.10;5.20;;;;;;;29.69;38.86;96972.50;104837;1260;102079;-83
2023/09/18 12:57:07;;;;;;;6.90;6.00;;;;;;;29.68;38.36;96968.78;104812;1254;101700;-83
2023/09/18 12:59:37;;;;;;;5.90;5.40;;;;;;;29.63;38.27;96970.50;104526;1262;98935;-82
2023/09/18 13:02:07;;;;;;;6.90;6.20;;;;;;;29.60;38.67;96965.48;104886;1259;96652;-81
2023/09/18 13:04:37;;;;;;;7.70;5.80;;;;;;;29.62;39.40;96961.09;104570;1274;97176;-80
2023/09/18 13:07:11;;;;;;;6.20;5.70;;;;;;;29.61;38.60;96956.87;104842;1259;101762;-80
2023/09/18 13:09:40;;;;;;;6.40;5.80;;;;;;;29.60;38.67;96954.43;104879;1258;100613;-80
2023/09/18 13:12:09;;;;;;;6.50;5.90;;;;;;;29.59;38.83;96950.20;104827;1259;100007;-80
2023/09/18 13:15:04;;;;;;;7.40;6.00;;;;;;;29.57;38.73;96952.69;104864;1259;97406;-81
2023/09/18 13:17:44;;;;;;;6.70;6.10;;;;;;;29.53;38.57;96950.54;104900;1265;97201;-79
2023/09/18 13:20:24;;;;;;;7.50;6.60;;;;;;;29.54;38.69;96948.44;104885;1259;102423;-79
2023/09/18 13:22:53;;;;;;;6.30;5.50;;;;;;;29.60;39.01;96947.46;104892;1264;101481;-80
2023/09/18 13:25:37;;;;;;;7.00;6.10;;;;;;;29.70;39.21;96951.60;104609;1262;99908;-80
2023/09/18 13:28:07;;;;;;;6.30;5.70;;;;;;;29.79;39.13;96951.89;104885;1257;97075;-81
2023/09/18 13:30:39;;;;;;;6.90;6.30;;;;;;;29.83;38.67;96944.79;104974;1254;97076;-80
2023/09/18 13:33:12;;;;;;;6.60;6.00;;;;;;;29.82;38.81;96940.64;104637;1262;101955;-80
2023/09/18 13:35:42;;;;;;;6.50;5.90;;;;;;;29.79;38.51;96938.15;104910;1253;100417;-80
2023/09/18 13:38:10;;;;;;;7.10;5.90;;;;;;;29.73;38.38;96936.37;104954;1257;99004;-81
2023/09/18 13:40:40;;;;;;;6.70;6.20;;;;;;;29.74;38.59;96934.65;104685;1262;96638;-80
2023/09/18 13:43:10;;;;;;;7.00;6.30;;;;;;;29.79;38.52;96934.02;104987;1254;98165;-79
2023/09/18 13:45:39;;;;;;;6.10;5.60;;;;;;;29.82;38.62;96931.81;104625;1263;101192;-82
2023/09/18 13:48:07;;;;;;;8.30;6.00;;;;;;;29.84;37.98;96932.81;104969;1259;101396;-82
2023/09/18 13:50:37;;;;;;;6.30;5.70;;;;;;;29.84;38.02;96925.02;104521;1264;99920;-81
2023/09/18 13:53:06;;;;;;;6.60;6.10;;;;;;;29.87;38.01;96920.61;104899;1259;96577;-83
2023/09/18 13:55:35;;;;;;;7.10;6.40;;;;;;;29.83;37.52;96916.10;104929;1257;98443;-82
2023/09/18 13:58:04;;;;;;;6.60;5.90;;;;;;;29.77;37.88;96908.28;105004;1259;102088;-82
2023/09/18 14:00:32;;;;;;;8.40;6.20;;;;;;;29.78;38.35;96903.00;104947;1260;100948;-79
2023/09/18 14:03:02;;;;;;;7.40;5.90;;;;;;;29.76;38.92;96906.49;104930;1254;99845;-80
2023/09/18 14:05:32;;;;;;;8.00;5.50;;;;;;;29.74;38.52;96908.33;104634;1263;97999;-80
2023/09/18 14:08:00;;;;;;;5.40;4.90;;;;;;;29.66;37.53;96909.11;104900;1255;97574;-80
2023/09/18 14:10:28;;;;;;;6.60;5.30;;;;;;;29.59;37.55;96907.60;104867;1254;101186;-80
2023/09/18 14:12:57;;;;;;;6.40;5.10;;;;;;;29.53;37.15;96901.92;104835;1259;100291;-80
2023/09/18 14:15:25;;;;;;;5.80;5.20;;;;;;;29.48;37.52;96896.99;104911;1267;98787;-79
2023/09/18 14:17:52;;;;;;;5.30;4.80;;;;;;;29.45;37.22;96895.86;104853;1254;97535;-78
2023/09/18 14:20:20;;;;;;;6.60;5.30;;;;;;;29.38;36.86;96893.88;104876;1260;97826;-79
2023/09/18 14:22:49;;;;;;;5.80;5.10;;;;;;;29.34;36.94;96890.45;104557;1262;101578;-79
2023/09/18 14:25:19;;;;;;;5.50;5.00;;;;;;;29.31;37.04;96887.34;104598;1261;101047;-79
2023/09/18 14:27:47;;;;;;;5.00;4.60;;;;;;;29.28;37.25;96888.23;104522;1263;99674;-79
2023/09/18 14:30:15;;;;;;;5.10;4.70;;;;;;;29.24;37.74;96887.48;104536;1257;96763;-79
2023/09/18 14:32:43;;;;;;;6.40;5.10;;;;;;;29.20;37.66;96883.61;104545;1262;97973;-79
2023/09/18 14:35:11;;;;;;;6.50;5.00;;;;;;;29.20;37.16;96880.44;104546;1262;102062;-79
2023/09/18 14:37:38;;;;;;;5.00;4.60;;;;;;;29.19;37.45;96878.00;104697;1263;101745;-79
2023/09/18 14:40:11;;;;;;;5.90;4.90;;;;;;;29.17;37.63;96876.29;104552;1261;99865;-80
2023/09/18 14:42:39;;;;;;;5.10;4.60;;;;;;;29.16;37.02;96872.90;104623;1259;97331;-79
2023/09/18 14:45:08;;;;;;;7.90;4.90;;;;;;;29.13;36.80;96868.50;104552;1263;98283;-79
2023/09/18 14:47:36;;;;;;;5.70;4.60;;;;;;;29.10;36.70;96867.29;104606;1261;101278;-81
2023/09/18 14:50:04;;;;;;;5.30;4.80;;;;;;;29.07;37.01;96870.13;104568;1262;100196;-80
2023/09/18 14:52:32;;;;;;;5.30;4.80;;;;;;;29.01;37.16;96868.65;104583;1262;98976;-81
2023/09/18 14:55:00;;;;;;;5.20;4.50;;;;;;;28.90;37.25;96871.05;104846;1258;96509;-80
2023/09/18 14:57:27;;;;;;;4.90;4.30;;;;;;;28.82;37.39;96870.61;104926;1257;97087;-80
2023/09/18 14:59:55;;;;;;;6.90;5.00;;;;;;;28.74;37.46;96870.60;104937;1254;101334;-79
2023/09/18 15:02:27;;;;;;;5.50;5.00;;;;;;;28.67;37.17;96870.80;104925;1257;100312;-80
2023/09/18 15:04:55;;;;;;;7.30;5.20;;;;;;;28.58;37.28;96869.12;104897;1258;98996;-81
2023/09/18 15:07:23;;;;;;;6.50;5.20;;;;;;;28.46;37.22;96870.66;104921;1257;97804;-80
2023/09/18 15:09:50;;;;;;;6.50;5.50;;;;;;;28.32;37.19;96866.89;104933;1258;97429;-80
2023/09/18 15:12:18;;;;;;;6.30;5.80;;;;;;;28.17;37.33;96863.95;104903;1254;101144;-80
2023/09/18 15:14:47;;;;;;;5.60;5.10;;;;;;;28.05;37.88;96869.23;104905;1268;101146;-80
2023/09/18 15:17:14;;;;;;;6.80;5.60;;;;;;;27.92;38.12;96861.99;104944;1254;99853;-81
2023/09/18 15:19:42;;;;;;;8.20;5.40;;;;;;;27.83;38.72;96861.69;104602;1262;96644;-79
2023/09/18 15:22:10;;;;;;;6.60;6.00;;;;;;;27.74;38.75;96862.63;104938;1267;97999;-79
2023/09/18 15:24:38;;;;;;;6.50;5.90;;;;;;;27.63;38.76;96860.91;104876;1257;101074;-79
2023/09/18 15:27:05;;;;;;;9.20;6.00;;;;;;;27.53;39.21;96860.79;104890;1260;101464;-79
2023/09/18 15:29:33;;;;;;;7.40;5.80;;;;;;;27.44;39.48;96857.40;104909;1254;99047;-80
2023/09/18 15:32:02;;;;;;;7.80;7.00;;;;;;;27.35;39.76;96857.96;104551;1262;97496;-79
2023/09/18 15:34:29;;;;;;;8.70;7.90;;;;;;;27.24;40.09;96858.56;104574;1262;99628;-79
2023/09/18 15:36:57;;;;;;;8.00;7.20;;;;;;;27.13;40.13;96857.77;104646;1262;100807;-79
2023/09/18 15:39:29;;;;;;;12.40;7.70;;;;;;;27.01;40.14;96854.41;104588;1260;100032;-79
2023/09/18 15:41:57;;;;;;;9.10;8.20;;;;;;;26.87;40.16;96851.74;104551;1263;100223;-78
2023/09/18 15:44:24;;;;;;;9.20;8.30;;;;;;;26.76;40.34;96848.16;104614;1274;97947;-79
2023/09/18 15:46:52;;;;;;;9.20;8.20;;;;;;;26.66;40.59;96845.02;104558;1274;97905;-79
2023/09/18 15:49:19;;;;;;;10.30;8.40;;;;;;;26.53;40.96;96846.18;104525;1264;102277;-79
2023/09/18 15:51:47;;;;;;;9.70;8.70;;;;;;;26.38;41.34;96845.41;104501;1264;100101;-79
2023/09/18 15:54:16;;;;;;;10.60;8.70;;;;;;;26.29;41.71;96844.70;104507;1273;100208;-79
2023/09/18 15:56:45;;;;;;;8.90;8.00;;;;;;;26.23;41.97;96843.75;104618;1264;96647;-79
2023/09/18 15:59:13;;;;;;;9.80;8.80;;;;;;;26.16;42.20;96842.83;104543;1260;97173;-79
2023/09/18 16:01:40;;;;;;;10.10;9.10;;;;;;;26.02;43.43;96848.11;104589;1259;101221;-78
2023/09/18 16:04:08;;;;;;;11.40;9.90;;;;;;;25.79;44.27;96849.33;104791;1258;100333;-78
2023/09/18 16:06:36;;;;;;;10.60;9.00;;;;;;;25.61;45.10;96849.36;104862;1257;98990;-78
2023/09/18 16:09:06;;;;;;;10.20;9.20;;;;;;;25.46;45.53;96847.55;104900;1276;96927;-78
2023/09/18 16:11:33;;;;;;;12.40;10.20;;;;;;;25.33;45.92;96844.77;104872;1254;97155;-78
2023/09/18 16:14:01;;;;;;;9.90;9.00;;;;;;;25.17;46.34;96842.40;104900;1254;102346;-78